createdAt,value
2023-08-23T00:01:21.131Z,10.98
2023-08-23T00:06:16.601Z,9.90
2023-08-23T00:08:43.364Z,8.52
2023-08-23T00:11:10.176Z,11.65
2023-08-23T00:13:36.977Z,11.45
2023-08-23T00:16:03.886Z,11.60
2023-08-23T00:18:30.711Z,10.70
2023-08-23T00:20:57.513Z,11.48
2023-08-23T00:23:24.321Z,9.18
2023-08-23T00:25:51.146Z,12.15
2023-08-23T00:28:20.566Z,11.38
2023-08-23T00:30:55.170Z,9.70
2023-08-23T00:33:22.619Z,13.13
2023-08-23T00:35:49.701Z,11.55
2023-08-23T00:38:16.671Z,11.07
2023-08-23T00:40:43.957Z,9.70
2023-08-23T00:43:10.860Z,10.98
2023-08-23T00:45:38.742Z,10.13
2023-08-23T00:48:06.752Z,12.65
2023-08-23T00:50:34.613Z,12.00
2023-08-23T00:53:03.204Z,11.48
2023-08-23T00:55:30.880Z,11.63
2023-08-23T00:57:58.639Z,11.73
2023-08-23T01:00:27.627Z,13.90
2023-08-23T01:02:55.041Z,9.77
2023-08-23T01:05:40.708Z,13.35
2023-08-23T01:08:13.426Z,10.85
2023-08-23T01:10:52.522Z,9.65
2023-08-23T01:13:30.539Z,10.27
2023-08-23T01:15:59.099Z,10.15
2023-08-23T01:18:28.859Z,10.38
2023-08-23T01:20:56.237Z,9.07
2023-08-23T01:23:24.596Z,8.15
2023-08-23T01:25:52.663Z,9.48
2023-08-23T01:28:21.127Z,11.40
2023-08-23T01:30:49.561Z,9.48
2023-08-23T01:33:38.211Z,9.48
2023-08-23T01:36:16.967Z,11.13
2023-08-23T01:38:44.398Z,9.20
2023-08-23T01:41:11.360Z,12.05
2023-08-23T01:43:38.125Z,12.73
2023-08-23T01:46:04.924Z,10.85
2023-08-23T01:48:31.764Z,12.98
2023-08-23T01:50:58.569Z,10.68
2023-08-23T01:53:25.310Z,10.00
2023-08-23T01:55:52.112Z,11.23
2023-08-23T01:58:18.925Z,8.85
2023-08-23T02:00:49.123Z,10.30
2023-08-23T02:03:16.044Z,9.20
2023-08-23T02:05:42.933Z,9.48
2023-08-23T02:08:09.745Z,9.48
2023-08-23T02:10:36.599Z,9.70
2023-08-23T02:13:07.709Z,8.90
2023-08-23T02:15:34.637Z,9.52
2023-08-23T02:18:01.631Z,11.50
2023-08-23T02:20:28.516Z,10.50
2023-08-23T02:22:55.327Z,9.27
2023-08-23T02:25:22.210Z,10.18
2023-08-23T02:27:49.523Z,10.57
2023-08-23T02:30:16.661Z,9.75
2023-08-23T02:32:43.525Z,9.95
2023-08-23T02:35:10.398Z,10.05
2023-08-23T02:37:37.180Z,10.30
2023-08-23T02:40:04.890Z,10.73
2023-08-23T02:42:31.770Z,15.07
2023-08-23T02:44:58.624Z,10.00
2023-08-23T02:47:25.500Z,9.80
2023-08-23T02:49:52.317Z,10.82
2023-08-23T02:52:20.526Z,9.15
2023-08-23T02:54:47.363Z,9.68
2023-08-23T02:57:14.122Z,9.73
2023-08-23T02:59:40.909Z,9.20
2023-08-23T03:02:07.697Z,12.23
2023-08-23T03:04:34.590Z,8.68
2023-08-23T03:07:01.350Z,9.18
2023-08-23T03:09:28.143Z,10.63
2023-08-23T03:11:54.964Z,10.35
2023-08-23T03:14:21.712Z,9.45
2023-08-23T03:16:48.448Z,8.82
2023-08-23T03:19:15.216Z,10.00
2023-08-23T03:21:41.993Z,9.57
2023-08-23T03:24:08.758Z,13.48
2023-08-23T03:26:35.636Z,10.80
2023-08-23T03:29:02.448Z,10.32
2023-08-23T03:31:29.547Z,8.32
2023-08-23T03:33:56.511Z,11.50
2023-08-23T03:36:23.556Z,10.15
2023-08-23T03:38:50.356Z,8.93
2023-08-23T03:41:17.230Z,10.82
2023-08-23T03:43:44.144Z,10.43
2023-08-23T03:46:11.134Z,8.82
2023-08-23T03:48:37.958Z,12.77
2023-08-23T03:51:04.770Z,9.70
2023-08-23T03:53:31.646Z,11.15
2023-08-23T03:55:59.452Z,10.55
2023-08-23T03:58:26.570Z,10.80
2023-08-23T04:00:53.664Z,9.77
2023-08-23T04:03:20.992Z,10.10
2023-08-23T04:05:47.999Z,11.70
2023-08-23T04:08:14.955Z,16.17
2023-08-23T04:10:47.931Z,12.18
2023-08-23T04:13:14.815Z,13.20
2023-08-23T04:15:45.614Z,11.05
2023-08-23T04:18:12.581Z,16.23
2023-08-23T04:20:39.860Z,9.73
2023-08-23T04:23:07.097Z,11.10
2023-08-23T04:25:34.223Z,12.27
2023-08-23T04:28:01.026Z,11.15
2023-08-23T04:30:27.819Z,12.70
2023-08-23T04:32:54.738Z,10.77
2023-08-23T04:35:21.633Z,11.18
2023-08-23T04:37:48.550Z,14.07
2023-08-23T04:40:15.535Z,12.02
2023-08-23T04:42:42.388Z,11.70
2023-08-23T04:45:09.660Z,9.00
2023-08-23T04:47:36.570Z,11.40
2023-08-23T04:50:03.614Z,11.07
2023-08-23T04:52:31.126Z,10.27
2023-08-23T04:54:57.999Z,10.90
2023-08-23T04:57:24.808Z,12.80
2023-08-23T04:59:52.240Z,11.27
2023-08-23T05:02:19.139Z,12.30
2023-08-23T05:04:45.954Z,10.30
2023-08-23T05:07:12.782Z,11.45
2023-08-23T05:09:39.629Z,11.52
2023-08-23T05:12:06.620Z,14.27
2023-08-23T05:14:33.431Z,14.15
2023-08-23T05:17:00.183Z,14.45
2023-08-23T05:19:26.968Z,10.40
2023-08-23T05:21:53.824Z,10.65
2023-08-23T05:24:20.634Z,14.20
2023-08-23T05:26:47.419Z,11.65
2023-08-23T05:29:14.199Z,14.95
2023-08-23T05:31:41.124Z,12.07
2023-08-23T05:34:09.492Z,12.15
2023-08-23T05:36:36.339Z,9.48
2023-08-23T05:39:04.596Z,12.80
2023-08-23T05:41:31.521Z,11.88
2023-08-23T05:43:58.405Z,11.48
2023-08-23T05:46:25.245Z,12.63
2023-08-23T05:48:52.040Z,12.20
2023-08-23T05:51:18.830Z,15.90
2023-08-23T05:53:45.563Z,11.30
2023-08-23T05:56:12.392Z,12.65
2023-08-23T05:58:39.211Z,13.75
2023-08-23T06:01:06.177Z,19.85
2023-08-23T06:03:33.157Z,20.50
2023-08-23T06:05:59.964Z,15.48
2023-08-23T06:08:26.889Z,15.02
2023-08-23T06:10:53.777Z,15.93
2023-08-23T06:13:20.638Z,22.08
2023-08-23T06:15:47.483Z,15.10
2023-08-23T06:18:14.431Z,18.75
2023-08-23T06:20:44.303Z,17.05
2023-08-23T06:23:11.104Z,14.40
2023-08-23T06:25:38.456Z,14.35
2023-08-23T06:28:05.617Z,12.70
2023-08-23T06:30:32.584Z,15.45
2023-08-23T06:32:59.518Z,15.13
2023-08-23T06:35:27.540Z,14.57
2023-08-23T06:37:54.546Z,14.15
2023-08-23T06:40:21.364Z,16.65
2023-08-23T06:42:48.243Z,14.63
2023-08-23T06:45:15.090Z,17.90
2023-08-23T06:47:41.980Z,16.70
2023-08-23T06:50:12.307Z,15.23
2023-08-23T06:52:41.552Z,16.25
2023-08-23T06:55:09.049Z,15.80
2023-08-23T06:57:35.991Z,15.93
2023-08-23T07:00:02.934Z,18.88
2023-08-23T07:02:29.770Z,14.90
2023-08-23T07:04:56.678Z,21.33
2023-08-23T07:07:23.787Z,17.70
2023-08-23T07:09:51.191Z,17.63
2023-08-23T07:12:18.230Z,19.17
2023-08-23T07:14:47.917Z,17.25
2023-08-23T07:17:15.065Z,16.27
2023-08-23T07:19:41.993Z,18.65
2023-08-23T07:22:08.825Z,15.45
2023-08-23T07:24:35.759Z,15.75
2023-08-23T07:27:02.522Z,19.20
2023-08-23T07:29:30.339Z,21.10
2023-08-23T07:31:57.957Z,15.00
2023-08-23T07:34:24.836Z,14.32
2023-08-23T07:36:51.774Z,13.45
2023-08-23T07:39:18.589Z,18.25
2023-08-23T07:41:45.492Z,17.65
2023-08-23T07:44:12.352Z,23.35
2023-08-23T07:46:39.236Z,16.60
2023-08-23T07:49:06.085Z,18.63
2023-08-23T07:51:32.916Z,17.42
2023-08-23T07:53:59.713Z,18.77
2023-08-23T07:56:26.504Z,15.45
2023-08-23T07:58:54.348Z,21.98
2023-08-23T08:01:21.247Z,16.23
2023-08-23T08:03:49.046Z,13.15
2023-08-23T08:06:15.926Z,15.13
2023-08-23T08:08:44.085Z,17.88
2023-08-23T08:11:15.398Z,13.55
2023-08-23T08:13:42.752Z,20.58
2023-08-23T08:16:11.114Z,17.65
2023-08-23T08:18:38.288Z,14.32
2023-08-23T08:21:05.607Z,16.77
2023-08-23T08:23:33.220Z,14.38
2023-08-23T08:26:00.092Z,12.10
2023-08-23T08:28:27.372Z,15.55
2023-08-23T08:30:54.330Z,15.85
2023-08-23T08:33:21.277Z,12.60
2023-08-23T08:35:48.136Z,17.27
2023-08-23T08:38:15.086Z,15.60
2023-08-23T08:40:42.133Z,18.35
2023-08-23T08:43:10.807Z,12.50
2023-08-23T08:45:39.011Z,16.33
2023-08-23T08:48:07.253Z,20.10
2023-08-23T08:50:34.451Z,16.95
2023-08-23T08:53:05.199Z,15.40
2023-08-23T08:55:32.428Z,13.55
2023-08-23T08:58:00.424Z,20.75
2023-08-23T09:00:31.697Z,11.93
2023-08-23T09:03:00.068Z,16.55
2023-08-23T09:05:28.015Z,19.40
2023-08-23T09:07:57.720Z,14.93
2023-08-23T09:10:25.763Z,15.60
2023-08-23T09:12:54.028Z,16.45
2023-08-23T09:15:27.974Z,14.70
2023-08-23T09:17:57.607Z,12.82
2023-08-23T09:20:25.276Z,17.77
2023-08-23T09:22:53.643Z,12.55
2023-08-23T09:25:21.569Z,17.10
2023-08-23T09:27:51.077Z,16.17
2023-08-23T09:30:17.984Z,14.38
2023-08-23T09:32:44.893Z,13.40
2023-08-23T09:35:15.749Z,16.15
2023-08-23T09:37:44.980Z,13.98
2023-08-23T09:40:18.697Z,16.02
2023-08-23T09:42:46.404Z,15.68
2023-08-23T09:45:18.924Z,16.15
2023-08-23T09:48:06.490Z,13.48
2023-08-23T09:50:33.718Z,11.80
2023-08-23T09:53:11.646Z,13.48
2023-08-23T09:55:40.226Z,16.95
2023-08-23T09:58:07.618Z,12.68
2023-08-23T10:00:35.356Z,19.38
2023-08-23T10:03:02.556Z,14.32
2023-08-23T10:05:30.015Z,10.77
2023-08-23T10:07:58.150Z,14.90
2023-08-23T10:10:27.074Z,14.68
2023-08-23T10:12:59.163Z,14.18
2023-08-23T10:18:03.073Z,16.52
2023-08-23T10:20:33.570Z,12.93
2023-08-23T10:23:00.527Z,13.05
2023-08-23T10:25:27.300Z,14.70
2023-08-23T10:27:55.516Z,15.25
2023-08-23T10:30:29.852Z,15.70
2023-08-23T10:33:17.796Z,10.50
2023-08-23T10:35:46.206Z,11.27
2023-08-23T10:38:13.508Z,12.80
2023-08-23T10:40:43.813Z,10.77
2023-08-23T10:43:13.371Z,17.25
2023-08-23T10:45:55.013Z,13.10
2023-08-23T10:48:24.313Z,15.27
2023-08-23T10:50:52.277Z,15.50
2023-08-23T10:53:19.614Z,13.15
2023-08-23T10:55:47.312Z,13.07
2023-08-23T10:58:14.876Z,12.55
2023-08-23T11:00:43.261Z,13.98
2023-08-23T11:03:12.647Z,15.55
2023-08-23T11:05:39.570Z,11.10
2023-08-23T11:08:07.072Z,13.93
2023-08-23T11:10:33.874Z,9.52
2023-08-23T11:13:01.397Z,12.20
2023-08-23T11:15:28.632Z,11.40
2023-08-23T11:17:57.052Z,14.70
2023-08-23T11:20:23.971Z,16.83
2023-08-23T11:22:50.806Z,12.93
2023-08-23T11:25:17.742Z,14.45
2023-08-23T11:27:44.518Z,12.48
2023-08-23T11:30:11.598Z,12.10
2023-08-23T11:32:38.633Z,10.98
2023-08-23T11:35:07.203Z,14.27
2023-08-23T11:37:36.769Z,13.48
2023-08-23T11:40:13.291Z,18.65
2023-08-23T11:42:40.249Z,11.02
2023-08-23T11:45:08.194Z,14.45
2023-08-23T11:47:36.459Z,9.05
2023-08-23T11:50:08.599Z,34.10
2023-08-23T11:52:35.550Z,10.43
2023-08-23T11:55:06.197Z,12.43
2023-08-23T11:57:36.222Z,14.68
2023-08-23T12:00:04.379Z,15.57
2023-08-23T12:02:31.686Z,11.90
2023-08-23T12:04:59.214Z,14.38
2023-08-23T12:07:26.124Z,13.43
2023-08-23T12:09:52.994Z,17.17
2023-08-23T12:12:20.885Z,14.43
2023-08-23T12:14:47.718Z,18.92
2023-08-23T12:17:15.348Z,15.95
2023-08-23T12:19:42.101Z,14.50
2023-08-23T12:22:11.377Z,14.32
2023-08-23T12:24:38.308Z,10.88
2023-08-23T12:27:05.965Z,13.43
2023-08-23T12:29:32.863Z,16.40
2023-08-23T12:31:59.825Z,13.98
2023-08-23T12:34:26.892Z,11.65
2023-08-23T12:36:54.028Z,12.73
2023-08-23T12:39:20.977Z,16.02
2023-08-23T12:41:48.164Z,11.20
2023-08-23T12:44:15.686Z,16.90
2023-08-23T12:46:42.700Z,17.77
2023-08-23T12:49:13.719Z,11.82
2023-08-23T12:51:41.540Z,12.98
2023-08-23T12:54:08.764Z,17.38
2023-08-23T12:56:36.286Z,17.23
2023-08-23T12:59:03.776Z,17.67
2023-08-23T13:01:31.735Z,15.60
2023-08-23T13:03:58.734Z,14.73
2023-08-23T13:06:25.731Z,11.98
2023-08-23T13:08:52.664Z,12.25
2023-08-23T13:11:19.496Z,17.02
2023-08-23T13:13:51.013Z,15.27
2023-08-23T13:16:17.874Z,11.18
2023-08-23T13:18:44.806Z,16.67
2023-08-23T13:21:11.676Z,14.20
2023-08-23T13:23:38.635Z,16.75
2023-08-23T13:26:05.453Z,16.55
2023-08-23T13:28:32.398Z,13.65
2023-08-23T13:30:59.181Z,12.80
2023-08-23T13:33:26.032Z,15.40
2023-08-23T13:35:52.953Z,17.58
2023-08-23T13:38:19.858Z,14.00
2023-08-23T13:40:46.686Z,15.82
2023-08-23T13:43:16.994Z,14.23
2023-08-23T13:45:46.291Z,14.57
2023-08-23T13:48:13.461Z,13.90
2023-08-23T13:50:40.317Z,15.43
2023-08-23T13:53:07.169Z,15.77
2023-08-23T13:55:34.637Z,15.50
2023-08-23T13:58:01.488Z,15.30
2023-08-23T14:00:28.761Z,14.82
2023-08-23T14:02:55.856Z,14.80
2023-08-23T14:05:25.895Z,13.55
2023-08-23T14:07:53.428Z,14.57
2023-08-23T14:10:20.493Z,9.43
2023-08-23T14:12:47.475Z,12.32
2023-08-23T14:15:14.325Z,10.95
2023-08-23T14:17:42.630Z,17.00
2023-08-23T14:20:11.679Z,13.77
2023-08-23T14:22:38.826Z,19.02
2023-08-23T14:25:06.174Z,13.20
2023-08-23T14:27:33.844Z,14.88
2023-08-23T14:30:02.056Z,17.70
2023-08-23T14:32:29.694Z,18.05
2023-08-23T14:34:56.765Z,13.00
2023-08-23T14:37:23.637Z,16.90
2023-08-23T14:39:50.558Z,17.70
2023-08-23T14:42:17.377Z,18.33
2023-08-23T14:44:44.710Z,13.10
2023-08-23T14:47:11.772Z,16.00
2023-08-23T14:49:38.675Z,13.63
2023-08-23T14:52:05.962Z,12.88
2023-08-23T14:54:32.870Z,19.55
2023-08-23T14:56:59.685Z,11.48
2023-08-23T14:59:26.423Z,17.40
2023-08-23T15:01:53.257Z,14.77
2023-08-23T15:04:20.164Z,14.20
2023-08-23T15:06:47.167Z,17.40
2023-08-23T15:09:14.086Z,16.60
2023-08-23T15:11:40.895Z,14.63
2023-08-23T15:14:10.482Z,17.88
2023-08-23T15:16:38.823Z,12.13
2023-08-23T15:19:05.789Z,15.52
2023-08-23T15:21:32.615Z,15.20
2023-08-23T15:23:59.426Z,14.55
2023-08-23T15:26:26.239Z,16.15
2023-08-23T15:28:56.809Z,18.23
2023-08-23T15:31:24.662Z,16.40
2023-08-23T15:33:51.681Z,12.65
2023-08-23T15:36:18.457Z,14.98
2023-08-23T15:38:45.681Z,17.55
2023-08-23T15:41:12.678Z,15.65
2023-08-23T15:43:39.782Z,16.10
2023-08-23T15:46:06.704Z,17.42
2023-08-23T15:48:33.871Z,14.05
2023-08-23T15:51:02.733Z,11.75
2023-08-23T15:53:29.551Z,15.90
2023-08-23T15:56:00.814Z,13.50
2023-08-23T15:58:28.455Z,18.50
2023-08-23T16:00:55.270Z,14.00
2023-08-23T16:03:23.345Z,11.85
2023-08-23T16:05:55.364Z,14.30
2023-08-23T16:10:51.900Z,15.30
2023-08-23T16:13:21.698Z,12.20
2023-08-23T16:15:48.764Z,15.32
2023-08-23T16:18:15.657Z,12.73
2023-08-23T16:20:42.450Z,12.70
2023-08-23T16:23:10.529Z,16.70
2023-08-23T16:25:37.543Z,11.80
2023-08-23T16:28:09.794Z,11.75
2023-08-23T16:30:40.447Z,16.75
2023-08-23T16:33:07.844Z,15.93
2023-08-23T16:35:38.073Z,12.00
2023-08-23T16:38:08.107Z,12.23
2023-08-23T16:40:37.974Z,13.27
2023-08-23T16:43:06.907Z,12.70
2023-08-23T16:45:34.623Z,15.32
2023-08-23T16:48:02.059Z,11.55
2023-08-23T16:50:28.848Z,12.60
2023-08-23T16:52:55.753Z,10.75
2023-08-23T16:55:22.645Z,11.73
2023-08-23T16:57:49.446Z,9.38
2023-08-23T17:00:16.833Z,11.32
2023-08-23T17:02:46.506Z,14.70
2023-08-23T17:05:14.521Z,11.07
2023-08-23T17:07:41.497Z,14.43
2023-08-23T17:10:08.646Z,10.85
2023-08-23T17:12:35.540Z,11.32
2023-08-23T17:15:02.521Z,9.82
2023-08-23T17:17:30.150Z,14.93
2023-08-23T17:19:57.082Z,12.18
2023-08-23T17:22:23.894Z,9.13
2023-08-23T17:24:50.889Z,11.82
2023-08-23T17:27:18.178Z,14.05
2023-08-23T17:29:45.031Z,8.90
2023-08-23T17:32:11.871Z,11.45
2023-08-23T17:34:39.396Z,9.77
2023-08-23T17:37:06.327Z,14.07
2023-08-23T17:39:33.128Z,14.63
2023-08-23T17:42:00.515Z,12.43
2023-08-23T17:44:27.599Z,10.80
2023-08-23T17:46:54.535Z,9.93
2023-08-23T17:49:21.355Z,25.50
2023-08-23T17:51:48.153Z,16.60
2023-08-23T17:54:14.968Z,10.82
2023-08-23T17:56:43.662Z,10.45
2023-08-23T17:59:10.453Z,10.73
2023-08-23T18:01:37.472Z,15.35
2023-08-23T18:04:04.462Z,14.30
2023-08-23T18:06:32.249Z,12.25
2023-08-23T18:08:59.077Z,15.68
2023-08-23T18:11:26.233Z,14.50
2023-08-23T18:13:53.085Z,11.50
2023-08-23T18:16:20.019Z,11.73
2023-08-23T18:18:46.879Z,13.55
2023-08-23T18:21:13.853Z,9.20
2023-08-23T18:23:40.618Z,14.25
2023-08-23T18:26:07.469Z,11.00
2023-08-23T18:28:34.322Z,13.68
2023-08-23T18:31:02.787Z,16.17
2023-08-23T18:33:31.251Z,14.73
2023-08-23T18:36:00.088Z,14.40
2023-08-23T18:38:26.951Z,14.93
2023-08-23T18:40:59.405Z,12.85
2023-08-23T18:43:26.182Z,12.95
2023-08-23T18:45:53.003Z,15.63
2023-08-23T18:48:19.804Z,13.32
2023-08-23T18:50:46.601Z,12.60
2023-08-23T18:53:13.403Z,13.45
2023-08-23T18:55:40.165Z,10.68
2023-08-23T18:58:06.901Z,15.15
2023-08-23T19:00:33.688Z,13.35
2023-08-23T19:03:00.529Z,20.58
2023-08-23T19:05:28.033Z,13.43
2023-08-23T19:07:54.843Z,11.95
2023-08-23T19:10:21.774Z,15.52
2023-08-23T19:12:48.814Z,16.02
2023-08-23T19:15:16.017Z,18.38
2023-08-23T19:17:45.943Z,14.90
2023-08-23T19:20:13.402Z,15.07
2023-08-23T19:22:40.134Z,21.95
2023-08-23T19:25:07.224Z,13.75
2023-08-23T19:27:34.091Z,30.52
2023-08-23T19:30:00.873Z,85.22
2023-08-23T19:32:32.027Z,80.35
2023-08-23T19:34:58.952Z,102.10
2023-08-23T19:37:25.760Z,65.13
2023-08-23T19:39:52.589Z,23.55
2023-08-23T19:42:21.514Z,22.45
2023-08-23T19:44:48.365Z,15.70
2023-08-23T19:47:15.241Z,21.50
2023-08-23T19:49:42.029Z,20.67
2023-08-23T19:52:08.846Z,15.38
2023-08-23T19:54:39.169Z,15.60
2023-08-23T19:57:06.626Z,20.48
2023-08-23T19:59:33.476Z,13.13
2023-08-23T20:02:00.312Z,14.35
2023-08-23T20:04:27.439Z,12.10
2023-08-23T20:06:54.325Z,11.07
2023-08-23T20:09:21.148Z,15.43
2023-08-23T20:11:51.975Z,16.15
2023-08-23T20:14:19.216Z,13.82
2023-08-23T20:16:45.985Z,14.27
2023-08-23T20:19:12.773Z,14.93
2023-08-23T20:21:39.530Z,12.32
2023-08-23T20:24:06.365Z,15.30
2023-08-23T20:26:34.047Z,14.88
2023-08-23T20:29:01.144Z,15.02
2023-08-23T20:31:28.115Z,13.07
2023-08-23T20:33:55.234Z,13.40
2023-08-23T20:36:25.343Z,12.18
2023-08-23T20:38:52.178Z,16.33
2023-08-23T20:41:19.167Z,12.23
2023-08-23T20:43:45.980Z,13.55
2023-08-23T20:46:12.793Z,17.77
2023-08-23T20:48:39.617Z,18.48
2023-08-23T20:51:08.373Z,14.70
2023-08-23T20:53:35.674Z,11.38
2023-08-23T20:56:02.686Z,12.02
2023-08-23T20:58:29.498Z,12.55
2023-08-23T21:00:58.798Z,12.48
2023-08-23T21:03:25.873Z,14.55
2023-08-23T21:05:52.684Z,17.80
2023-08-23T21:08:19.546Z,12.80
2023-08-23T21:10:46.377Z,14.68
2023-08-23T21:13:14.432Z,16.00
2023-08-23T21:15:48.515Z,14.98
2023-08-23T21:18:16.206Z,18.13
2023-08-23T21:20:43.272Z,13.13
2023-08-23T21:23:12.235Z,15.50
2023-08-23T21:25:39.243Z,18.40
2023-08-23T21:28:08.130Z,17.67
2023-08-23T21:30:34.978Z,14.48
2023-08-23T21:33:02.217Z,15.40
2023-08-23T21:35:30.159Z,16.33
2023-08-23T21:37:57.394Z,14.75
2023-08-23T21:40:24.378Z,15.05
2023-08-23T21:42:51.152Z,19.58
2023-08-23T21:45:18.163Z,15.07
2023-08-23T21:47:45.986Z,18.58
2023-08-23T21:50:12.851Z,15.82
2023-08-23T21:52:39.757Z,15.23
2023-08-23T21:55:07.146Z,15.02
2023-08-23T21:57:34.064Z,16.23
2023-08-23T22:00:00.930Z,13.98
2023-08-23T22:02:27.785Z,15.88
2023-08-23T22:04:54.634Z,16.55
2023-08-23T22:07:21.509Z,12.55
2023-08-23T22:09:48.421Z,18.80
2023-08-23T22:12:15.191Z,21.05
2023-08-23T22:14:41.932Z,13.63
2023-08-23T22:17:10.260Z,15.75
2023-08-23T22:19:37.108Z,14.20
2023-08-23T22:22:04.017Z,15.18
2023-08-23T22:24:30.896Z,14.30
2023-08-23T22:26:57.722Z,12.75
2023-08-23T22:29:24.584Z,18.55
2023-08-23T22:31:51.401Z,13.95
2023-08-23T22:34:18.200Z,19.83
2023-08-23T22:36:45.066Z,17.40
2023-08-23T22:39:11.983Z,17.38
2023-08-23T22:41:38.807Z,17.42
2023-08-23T22:44:06.409Z,15.95
2023-08-23T22:46:33.377Z,13.60
2023-08-23T22:49:01.011Z,14.02
2023-08-23T22:51:27.827Z,15.25
2023-08-23T22:53:55.423Z,12.90
2023-08-23T22:56:22.393Z,17.65
2023-08-23T22:58:49.197Z,14.50
2023-08-23T23:01:16.130Z,15.25
2023-08-23T23:03:43.016Z,14.40
2023-08-23T23:06:09.973Z,12.07
2023-08-23T23:08:36.813Z,12.55
2023-08-23T23:11:05.484Z,12.38
2023-08-23T23:13:32.752Z,16.77
2023-08-23T23:16:04.548Z,15.93
2023-08-23T23:18:33.218Z,14.25
2023-08-23T23:21:00.221Z,13.75
2023-08-23T23:23:27.193Z,15.75
2023-08-23T23:25:54.758Z,18.05
2023-08-23T23:28:21.584Z,16.95
2023-08-23T23:30:48.388Z,14.35
2023-08-23T23:33:15.226Z,14.88
2023-08-23T23:35:42.009Z,13.23
2023-08-23T23:38:08.909Z,16.13
2023-08-23T23:40:39.918Z,14.10
2023-08-23T23:43:06.770Z,15.05
2023-08-23T23:45:37.832Z,14.05
2023-08-23T23:48:05.717Z,14.75
2023-08-23T23:50:33.960Z,19.17
2023-08-23T23:53:01.355Z,16.90
2023-08-23T23:55:33.560Z,13.40
